createdAt,value
2018-09-21T00:01:19.848Z,3.65
2018-09-21T00:03:53.687Z,3.90
2018-09-21T00:06:23.208Z,3.67
2018-09-21T00:08:52.704Z,3.98
2018-09-21T00:11:21.514Z,3.80
2018-09-21T00:13:51.020Z,3.62
2018-09-21T00:16:21.104Z,3.98
2018-09-21T00:18:51.462Z,3.50
2018-09-21T00:21:20.223Z,3.17
2018-09-21T00:23:49.056Z,3.50
2018-09-21T00:26:17.875Z,3.83
2018-09-21T00:28:46.397Z,3.45
2018-09-21T00:31:15.259Z,3.47
2018-09-21T00:33:44.089Z,3.40
2018-09-21T00:36:13.019Z,3.75
2018-09-21T00:38:42.097Z,3.93
2018-09-21T00:41:10.951Z,3.67
2018-09-21T00:43:40.464Z,3.60
2018-09-21T00:46:09.258Z,3.60
2018-09-21T00:48:38.175Z,3.52
2018-09-21T00:51:06.993Z,3.65
2018-09-21T00:53:36.329Z,3.10
2018-09-21T00:56:06.537Z,3.80
2018-09-21T00:58:35.250Z,3.70
2018-09-21T01:01:04.470Z,4.00
2018-09-21T01:03:33.169Z,3.42
2018-09-21T01:06:02.044Z,3.50
2018-09-21T01:08:31.407Z,4.03
2018-09-21T01:11:00.201Z,4.10
2018-09-21T01:13:29.160Z,3.50
2018-09-21T01:15:57.969Z,3.80
2018-09-21T01:18:26.807Z,3.72
2018-09-21T01:20:55.684Z,3.72
2018-09-21T01:23:24.342Z,3.60
2018-09-21T01:25:53.782Z,3.52
2018-09-21T01:28:22.447Z,3.70
2018-09-21T01:30:51.147Z,3.58
2018-09-21T01:33:20.026Z,3.55
2018-09-21T01:35:49.007Z,4.15
2018-09-21T01:38:17.635Z,4.12
2018-09-21T01:40:47.496Z,3.77
2018-09-21T01:43:16.249Z,4.20
2018-09-21T01:45:44.916Z,3.80
2018-09-21T01:48:13.971Z,4.03
2018-09-21T01:50:42.604Z,3.93
2018-09-21T01:53:11.306Z,3.77
2018-09-21T01:55:40.070Z,4.17
2018-09-21T01:58:08.745Z,4.00
2018-09-21T02:00:37.596Z,4.00
2018-09-21T02:03:06.099Z,4.30
2018-09-21T02:05:34.709Z,4.07
2018-09-21T02:08:04.209Z,3.70
2018-09-21T02:10:33.334Z,4.10
2018-09-21T02:13:02.051Z,4.30
2018-09-21T02:15:30.853Z,4.10
2018-09-21T02:17:59.565Z,4.13
2018-09-21T02:20:28.638Z,4.22
2018-09-21T02:22:57.248Z,4.08
2018-09-21T02:25:25.899Z,4.05
2018-09-21T02:27:54.734Z,3.95
2018-09-21T02:30:23.934Z,3.87
2018-09-21T02:32:52.588Z,3.80
2018-09-21T02:35:22.210Z,4.17
2018-09-21T02:37:50.855Z,3.83
2018-09-21T02:40:19.443Z,4.40
2018-09-21T02:42:48.131Z,4.10
2018-09-21T02:45:16.860Z,4.20
2018-09-21T02:47:45.452Z,4.50
2018-09-21T02:50:14.225Z,4.70
2018-09-21T02:52:43.024Z,3.80
2018-09-21T02:55:11.628Z,4.15
2018-09-21T02:57:40.291Z,4.17
2018-09-21T03:00:10.055Z,4.17
2018-09-21T03:02:38.802Z,4.40
2018-09-21T03:05:07.575Z,3.85
2018-09-21T03:07:36.384Z,4.50
2018-09-21T03:10:05.162Z,4.50
2018-09-21T03:12:33.799Z,4.72
2018-09-21T03:15:03.359Z,4.50
2018-09-21T03:17:32.063Z,4.37
2018-09-21T03:20:07.314Z,3.95
2018-09-21T03:22:36.517Z,4.80
2018-09-21T03:25:05.244Z,4.15
2018-09-21T03:27:34.155Z,5.30
2018-09-21T03:30:04.066Z,4.15
2018-09-21T03:32:32.961Z,4.40
2018-09-21T03:35:02.579Z,4.25
2018-09-21T03:37:31.200Z,4.70
2018-09-21T03:40:00.034Z,4.37
2018-09-21T03:42:28.651Z,4.83
2018-09-21T03:44:57.178Z,4.28
2018-09-21T03:47:25.901Z,4.37
2018-09-21T03:49:54.636Z,4.35
2018-09-21T03:52:24.229Z,4.30
2018-09-21T03:54:52.961Z,4.08
2018-09-21T03:57:21.715Z,4.65
2018-09-21T03:59:50.329Z,4.70
2018-09-21T04:02:19.816Z,4.67
2018-09-21T04:04:48.617Z,4.47
2018-09-21T04:07:18.452Z,4.90
2018-09-21T04:09:47.297Z,4.42
2018-09-21T04:12:16.245Z,4.33
2018-09-21T04:14:44.947Z,4.83
2018-09-21T04:17:13.682Z,4.85
2018-09-21T04:19:43.630Z,4.20
2018-09-21T04:22:12.407Z,4.58
2018-09-21T04:24:41.295Z,4.42
2018-09-21T04:27:09.999Z,4.62
2018-09-21T04:29:38.638Z,4.42
2018-09-21T04:32:07.248Z,5.10
2018-09-21T04:34:35.927Z,4.87
2018-09-21T04:37:04.743Z,4.72
2018-09-21T04:39:33.629Z,4.58
2018-09-21T04:42:02.527Z,4.22
2018-09-21T04:44:31.286Z,4.40
2018-09-21T04:47:00.148Z,4.60
2018-09-21T04:49:28.808Z,4.87
2018-09-21T04:51:59.067Z,5.00
2018-09-21T04:54:27.772Z,4.50
2018-09-21T04:56:56.476Z,4.90
2018-09-21T04:59:27.058Z,5.40
2018-09-21T05:01:55.672Z,4.58
2018-09-21T05:04:24.614Z,4.75
2018-09-21T05:06:53.446Z,4.60
2018-09-21T05:09:22.138Z,4.83
2018-09-21T05:11:50.887Z,4.75
2018-09-21T05:14:19.698Z,4.85
2018-09-21T05:16:48.359Z,4.70
2018-09-21T05:19:17.090Z,5.55
2018-09-21T05:21:46.132Z,5.12
2018-09-21T05:24:14.827Z,5.17
2018-09-21T05:26:43.556Z,4.80
2018-09-21T05:29:12.296Z,5.05
2018-09-21T05:31:40.982Z,5.12
2018-09-21T05:34:09.675Z,5.05
2018-09-21T05:36:38.357Z,4.70
2018-09-21T05:39:11.297Z,4.58
2018-09-21T05:41:40.216Z,4.90
2018-09-21T05:44:09.965Z,4.40
2018-09-21T05:46:42.835Z,4.97
2018-09-21T05:49:11.771Z,5.17
2018-09-21T05:51:42.423Z,4.83
2018-09-21T05:54:11.197Z,4.85
2018-09-21T05:56:41.355Z,5.10
2018-09-21T05:59:10.321Z,5.03
2018-09-21T06:01:39.025Z,5.15
2018-09-21T06:04:07.747Z,5.45
2018-09-21T06:06:37.728Z,4.90
2018-09-21T06:09:08.993Z,4.85
2018-09-21T06:11:38.004Z,4.70
2018-09-21T06:14:07.331Z,4.75
2018-09-21T06:16:35.888Z,5.10
2018-09-21T06:19:05.339Z,4.70
2018-09-21T06:21:35.156Z,4.83
2018-09-21T06:24:05.990Z,4.62
2018-09-21T06:26:35.134Z,4.93
2018-09-21T06:29:04.411Z,5.08
2018-09-21T06:31:33.123Z,4.83
2018-09-21T06:34:03.389Z,4.97
2018-09-21T06:36:32.250Z,4.58
2018-09-21T06:39:02.769Z,4.58
2018-09-21T06:41:31.408Z,4.45
2018-09-21T06:44:00.281Z,4.67
2018-09-21T06:46:28.970Z,4.62
2018-09-21T06:48:57.577Z,4.65
2018-09-21T06:51:26.802Z,4.47
2018-09-21T06:53:56.128Z,4.83
2018-09-21T06:56:25.000Z,4.92
2018-09-21T06:58:53.778Z,5.20
2018-09-21T07:01:22.817Z,4.70
2018-09-21T07:03:51.450Z,5.28
2018-09-21T07:06:20.638Z,5.10
2018-09-21T07:08:49.650Z,4.90
2018-09-21T07:11:18.477Z,4.60
2018-09-21T07:13:47.628Z,5.10
2018-09-21T07:16:16.947Z,5.08
2018-09-21T07:18:45.620Z,4.28
2018-09-21T07:21:14.298Z,4.87
2018-09-21T07:23:43.241Z,4.47
2018-09-21T07:26:12.117Z,4.80
2018-09-21T07:28:41.433Z,4.95
2018-09-21T07:31:10.254Z,4.97
2018-09-21T07:33:39.259Z,4.03
2018-09-21T07:36:08.196Z,4.55
2018-09-21T07:38:36.779Z,4.77
2018-09-21T07:41:05.602Z,4.58
2018-09-21T07:43:34.380Z,4.70
2018-09-21T07:46:04.469Z,4.90
2018-09-21T07:48:33.092Z,4.30
2018-09-21T07:51:02.604Z,4.67
2018-09-21T07:53:32.721Z,4.83
2018-09-21T07:56:01.559Z,4.92
2018-09-21T07:58:30.518Z,4.95
2018-09-21T08:00:59.183Z,4.87
2018-09-21T08:03:27.880Z,5.20
2018-09-21T08:05:56.809Z,5.10
2018-09-21T08:08:26.130Z,4.97
2018-09-21T08:10:54.891Z,4.97
2018-09-21T08:13:23.430Z,4.58
2018-09-21T08:15:54.677Z,5.70
2018-09-21T08:18:23.489Z,5.03
2018-09-21T08:20:52.097Z,4.92
2018-09-21T08:23:20.784Z,5.03
2018-09-21T08:25:49.402Z,4.72
2018-09-21T08:28:18.666Z,5.20
2018-09-21T08:30:47.402Z,4.70
2018-09-21T08:33:16.345Z,5.03
2018-09-21T08:35:45.042Z,4.60
2018-09-21T08:38:14.067Z,5.25
2018-09-21T08:40:43.032Z,4.83
2018-09-21T08:43:11.808Z,4.90
2018-09-21T08:45:40.507Z,4.70
2018-09-21T08:48:09.262Z,4.87
2018-09-21T08:50:37.871Z,4.77
2018-09-21T08:53:07.146Z,4.58
2018-09-21T08:55:37.023Z,4.80
2018-09-21T08:58:05.849Z,4.85
2018-09-21T09:00:34.857Z,5.17
2018-09-21T09:03:04.720Z,5.67
2018-09-21T09:05:33.415Z,5.20
2018-09-21T09:08:02.847Z,5.08
2018-09-21T09:10:31.567Z,4.83
2018-09-21T09:13:00.226Z,4.97
2018-09-21T09:15:29.843Z,5.10
2018-09-21T09:17:59.549Z,5.20
2018-09-21T09:20:28.400Z,4.90
2018-09-21T09:22:56.961Z,4.65
2018-09-21T09:25:25.758Z,4.60
2018-09-21T09:27:54.426Z,4.63
2018-09-21T09:30:23.271Z,4.97
2018-09-21T09:32:52.026Z,4.67
2018-09-21T09:35:20.912Z,4.75
2018-09-21T09:37:50.137Z,4.35
2018-09-21T09:40:18.918Z,4.40
2018-09-21T09:42:47.690Z,4.33
2018-09-21T09:45:16.372Z,5.08
2018-09-21T09:47:45.716Z,5.27
2018-09-21T09:50:14.720Z,4.70
2018-09-21T09:52:43.714Z,4.28
2018-09-21T09:55:12.492Z,4.37
2018-09-21T09:57:41.995Z,4.10
2018-09-21T10:00:10.881Z,4.28
2018-09-21T10:02:40.073Z,4.20
2018-09-21T10:05:14.558Z,4.33
2018-09-21T10:07:43.183Z,4.60
2018-09-21T10:10:11.993Z,4.28
2018-09-21T10:12:40.722Z,4.55
2018-09-21T10:15:09.792Z,4.33
2018-09-21T10:17:38.507Z,4.00
2018-09-21T10:20:07.308Z,3.72
2018-09-21T10:22:36.100Z,4.08
2018-09-21T10:25:04.777Z,4.28
2018-09-21T10:27:33.839Z,4.20
2018-09-21T10:30:03.808Z,4.00
2018-09-21T10:32:33.049Z,4.22
2018-09-21T10:35:02.527Z,4.40
2018-09-21T10:37:31.330Z,4.58
2018-09-21T10:40:02.003Z,4.10
2018-09-21T10:42:30.875Z,4.60
2018-09-21T10:44:59.639Z,4.30
2018-09-21T10:47:28.316Z,4.50
2018-09-21T10:50:03.681Z,4.20
2018-09-21T10:52:32.799Z,3.85
2018-09-21T10:55:05.565Z,4.42
2018-09-21T10:57:36.088Z,3.50
2018-09-21T11:00:06.749Z,3.50
2018-09-21T11:02:37.381Z,3.40
2018-09-21T11:05:11.035Z,2.95
2018-09-21T11:07:40.696Z,3.62
2018-09-21T11:10:09.708Z,4.28
2018-09-21T11:12:38.719Z,4.00
2018-09-21T11:15:08.391Z,4.08
2018-09-21T11:17:37.416Z,3.50
2018-09-21T11:20:07.395Z,1.92
2018-09-21T11:22:36.142Z,2.30
2018-09-21T11:25:04.943Z,1.67
2018-09-21T11:27:34.048Z,1.98
2018-09-21T11:30:03.271Z,1.52
2018-09-21T11:32:32.009Z,1.80
2018-09-21T11:35:00.641Z,1.80
2018-09-21T11:37:29.665Z,1.82
2018-09-21T11:39:59.237Z,1.80
2018-09-21T11:42:27.974Z,1.70
2018-09-21T11:44:57.269Z,1.87
2018-09-21T11:47:26.307Z,1.83
2018-09-21T11:49:57.615Z,1.90
2018-09-21T11:52:26.425Z,1.97
2018-09-21T11:54:58.477Z,2.12
2018-09-21T11:57:27.308Z,1.97
2018-09-21T11:59:56.196Z,2.50
2018-09-21T12:02:25.041Z,2.60
2018-09-21T12:04:57.409Z,2.30
2018-09-21T12:07:26.414Z,2.30
2018-09-21T12:09:55.806Z,2.40
2018-09-21T12:12:24.726Z,2.30
2018-09-21T12:14:53.825Z,2.40
2018-09-21T12:17:22.648Z,2.17
2018-09-21T12:19:51.901Z,2.30
2018-09-21T12:22:20.877Z,1.73
2018-09-21T12:24:49.838Z,1.63
2018-09-21T12:27:19.890Z,1.52
2018-09-21T12:29:49.173Z,1.90
2018-09-21T12:32:18.011Z,1.60
2018-09-21T12:34:50.197Z,1.65
2018-09-21T12:37:19.119Z,1.85
2018-09-21T12:39:49.299Z,1.40
2018-09-21T12:42:18.324Z,1.67
2018-09-21T12:44:47.333Z,1.80
2018-09-21T12:47:16.531Z,1.60
2018-09-21T12:49:46.838Z,1.82
2018-09-21T12:52:16.103Z,1.87
2018-09-21T12:54:45.910Z,1.80
2018-09-21T12:57:15.274Z,1.60
2018-09-21T12:59:52.332Z,1.80
2018-09-21T13:02:21.947Z,1.70
2018-09-21T13:04:55.031Z,2.10
2018-09-21T13:07:23.841Z,1.87
2018-09-21T13:09:54.246Z,3.05
2018-09-21T13:12:30.498Z,5.53
2018-09-21T13:14:59.669Z,3.60
2018-09-21T13:17:28.363Z,1.80
2018-09-21T13:19:57.096Z,1.98
2018-09-21T13:22:26.071Z,1.95
2018-09-21T13:24:54.885Z,1.80
2018-09-21T13:27:23.883Z,1.80
2018-09-21T13:29:52.639Z,1.60
2018-09-21T13:32:21.793Z,1.80
2018-09-21T13:34:50.573Z,1.90
2018-09-21T13:37:19.384Z,1.52
2018-09-21T13:39:48.398Z,1.82
2018-09-21T13:42:17.204Z,1.90
2018-09-21T13:44:47.120Z,1.70
2018-09-21T13:47:15.925Z,1.80
2018-09-21T13:49:44.999Z,1.62
2018-09-21T13:52:13.932Z,2.08
2018-09-21T13:54:42.781Z,1.72
2018-09-21T13:57:11.811Z,2.10
2018-09-21T13:59:41.657Z,1.90
2018-09-21T14:02:10.878Z,1.80
2018-09-21T14:04:40.136Z,1.77
2018-09-21T14:07:09.126Z,2.20
2018-09-21T14:09:38.987Z,1.85
2018-09-21T14:12:08.794Z,1.92
2018-09-21T14:14:37.738Z,2.37
2018-09-21T14:17:06.820Z,3.00
2018-09-21T14:19:35.849Z,2.25
2018-09-21T14:22:04.667Z,2.37
2018-09-21T14:24:33.501Z,2.40
2018-09-21T14:27:02.874Z,2.60
2018-09-21T14:29:32.748Z,3.15
2018-09-21T14:32:02.324Z,2.77
2018-09-21T14:34:31.311Z,2.90
2018-09-21T14:37:06.810Z,3.12
2018-09-21T14:39:39.304Z,2.50
2018-09-21T14:42:08.453Z,2.95
2018-09-21T14:44:37.312Z,3.37
2018-09-21T14:47:06.417Z,3.10
2018-09-21T14:49:35.318Z,3.65
2018-09-21T14:52:04.318Z,4.00
2018-09-21T14:54:33.116Z,3.85
2018-09-21T14:57:02.981Z,4.83
2018-09-21T14:59:31.539Z,4.05
2018-09-21T15:02:00.296Z,4.00
2018-09-21T15:04:29.264Z,3.87
2018-09-21T15:06:59.103Z,4.58
2018-09-21T15:09:27.932Z,3.70
2018-09-21T15:11:56.613Z,3.47
2018-09-21T15:14:25.437Z,3.52
2018-09-21T15:16:54.224Z,3.30
2018-09-21T15:19:22.993Z,3.45
2018-09-21T15:21:51.796Z,3.30
2018-09-21T15:24:20.444Z,2.70
2018-09-21T15:26:49.410Z,2.92
2018-09-21T15:29:19.388Z,2.33
2018-09-21T15:31:50.137Z,2.30
2018-09-21T15:34:19.074Z,2.77
2018-09-21T15:36:48.168Z,2.00
2018-09-21T15:39:17.161Z,2.40
2018-09-21T15:41:46.391Z,2.30
2018-09-21T15:44:17.546Z,2.00
2018-09-21T15:46:46.479Z,2.30
2018-09-21T15:49:15.701Z,1.85
2018-09-21T15:51:46.127Z,1.95
2018-09-21T15:54:14.976Z,1.47
2018-09-21T15:56:43.930Z,1.80
2018-09-21T15:59:12.969Z,1.35
2018-09-21T16:01:42.141Z,1.37
2018-09-21T16:04:11.216Z,0.80
2018-09-21T16:06:40.063Z,1.10
2018-09-21T16:09:10.172Z,0.90
2018-09-21T16:11:39.432Z,1.07
2018-09-21T16:14:08.735Z,1.42
2018-09-21T16:16:38.300Z,0.70
2018-09-21T16:19:08.549Z,1.10
2018-09-21T16:21:37.451Z,0.90
2018-09-21T16:24:06.293Z,1.00
2018-09-21T16:26:35.032Z,1.00
2018-09-21T16:29:04.799Z,1.35
2018-09-21T16:31:34.444Z,1.32
2018-09-21T16:34:03.628Z,1.10
2018-09-21T16:36:33.347Z,0.95
2018-09-21T16:39:03.832Z,1.10
2018-09-21T16:41:32.526Z,1.27
2018-09-21T16:44:02.171Z,1.10
2018-09-21T16:46:30.973Z,1.07
2018-09-21T16:49:00.020Z,1.20
2018-09-21T16:51:29.463Z,1.23
2018-09-21T16:53:58.360Z,1.00
2018-09-21T16:56:27.007Z,1.00
2018-09-21T16:58:56.743Z,0.88
2018-09-21T17:01:25.727Z,1.40
2018-09-21T17:03:54.413Z,3.73
2018-09-21T17:06:23.464Z,19.35
2018-09-21T17:08:53.107Z,8.53
2018-09-21T17:11:22.906Z,5.77
2018-09-21T17:13:51.672Z,4.20
2018-09-21T17:16:20.479Z,3.60
2018-09-21T17:18:49.191Z,1.80
2018-09-21T17:21:17.733Z,0.98
2018-09-21T17:23:46.721Z,1.00
2018-09-21T17:26:16.361Z,1.02
2018-09-21T17:28:45.094Z,1.10
2018-09-21T17:31:13.645Z,1.22
2018-09-21T17:33:42.490Z,1.00
2018-09-21T17:36:11.300Z,1.00
2018-09-21T17:38:39.995Z,1.23
2018-09-21T17:41:10.027Z,1.07
2018-09-21T17:43:38.784Z,1.35
2018-09-21T17:46:07.520Z,1.47
2018-09-21T17:48:36.190Z,1.20
2018-09-21T17:51:04.992Z,1.10
2018-09-21T17:53:33.716Z,1.20
2018-09-21T17:56:03.807Z,1.30
2018-09-21T17:58:32.567Z,0.97
2018-09-21T18:01:02.002Z,1.20
2018-09-21T18:03:30.601Z,1.23
2018-09-21T18:05:59.399Z,1.00
2018-09-21T18:08:28.926Z,1.43
2018-09-21T18:10:58.165Z,1.47
2018-09-21T18:13:26.981Z,2.27
2018-09-21T18:15:55.792Z,1.30
2018-09-21T18:18:24.665Z,1.40
2018-09-21T18:20:53.427Z,1.23
2018-09-21T18:23:22.214Z,1.03
2018-09-21T18:25:51.204Z,1.00
2018-09-21T18:28:19.787Z,0.93
2018-09-21T18:30:48.937Z,1.30
2018-09-21T18:33:18.591Z,1.42
2018-09-21T18:35:47.717Z,1.43
2018-09-21T18:40:59.305Z,2.00
2018-09-21T18:46:15.819Z,1.50
2018-09-21T18:48:44.761Z,1.20
2018-09-21T18:51:13.837Z,1.20
2018-09-21T18:56:22.923Z,1.20
2018-09-21T18:58:51.918Z,1.00
2018-09-21T19:01:21.058Z,1.00
2018-09-21T19:03:49.768Z,1.10
2018-09-21T19:06:18.421Z,1.10
2018-09-21T19:08:47.079Z,0.90
2018-09-21T19:11:16.085Z,1.03
2018-09-21T19:13:44.924Z,1.40
2018-09-21T19:16:13.711Z,1.10
2018-09-21T19:18:42.939Z,1.10
2018-09-21T19:21:11.748Z,0.95
2018-09-21T19:23:40.485Z,1.07
2018-09-21T19:26:09.404Z,1.20
2018-09-21T19:28:38.409Z,1.00
2018-09-21T19:31:07.912Z,1.20
2018-09-21T19:33:36.971Z,1.10
2018-09-21T19:36:05.928Z,1.00
2018-09-21T19:38:34.948Z,0.70
2018-09-21T19:41:06.118Z,0.97
2018-09-21T19:43:35.212Z,1.10
2018-09-21T19:46:05.684Z,1.20
2018-09-21T19:48:36.456Z,0.80
2018-09-21T19:51:05.468Z,0.90
2018-09-21T19:53:35.005Z,1.00
2018-09-21T19:56:06.534Z,1.00
2018-09-21T19:58:35.608Z,1.00
2018-09-21T20:01:06.457Z,1.40
2018-09-21T20:03:35.177Z,1.10
2018-09-21T20:06:04.961Z,1.07
2018-09-21T20:08:34.714Z,0.87
2018-09-21T20:11:04.005Z,0.70
2018-09-21T20:13:32.786Z,0.70
2018-09-21T20:16:01.770Z,0.60
2018-09-21T20:18:30.454Z,0.60
2018-09-21T20:20:59.627Z,0.60
2018-09-21T20:23:28.407Z,0.60
2018-09-21T20:25:57.243Z,0.60
2018-09-21T20:28:26.398Z,0.70
2018-09-21T20:31:00.306Z,0.93
2018-09-21T20:33:31.331Z,0.43
2018-09-21T20:36:00.411Z,0.50
2018-09-21T20:38:29.817Z,0.70
2018-09-21T20:40:59.191Z,0.60
2018-09-21T20:43:28.006Z,0.40
2018-09-21T20:45:57.264Z,0.60
2018-09-21T20:48:26.268Z,0.57
2018-09-21T20:50:55.079Z,0.53
2018-09-21T20:53:24.115Z,0.37
2018-09-21T20:55:53.424Z,0.60
2018-09-21T20:58:22.156Z,0.87
2018-09-21T21:00:51.098Z,0.65
2018-09-21T21:03:20.114Z,0.70
2018-09-21T21:05:48.966Z,0.60
2018-09-21T21:08:17.752Z,0.67
2018-09-21T21:10:46.408Z,0.90
2018-09-21T21:13:15.207Z,0.50
2018-09-21T21:15:43.883Z,0.70
2018-09-21T21:20:55.879Z,0.67
2018-09-21T21:23:27.019Z,0.60
2018-09-21T21:25:56.060Z,0.50
2018-09-21T21:28:25.976Z,0.60
2018-09-21T21:30:55.003Z,0.80
2018-09-21T21:33:24.035Z,0.67
2018-09-21T21:35:52.919Z,0.80
2018-09-21T21:38:21.668Z,0.60
2018-09-21T21:40:51.425Z,0.70
2018-09-21T21:43:20.102Z,0.73
2018-09-21T21:45:49.447Z,0.60
2018-09-21T21:48:18.151Z,0.50
2018-09-21T21:50:47.126Z,0.60
2018-09-21T21:53:16.330Z,1.00
2018-09-21T21:55:55.464Z,0.87
2018-09-21T21:58:24.828Z,0.73
2018-09-21T22:00:58.979Z,0.63
2018-09-21T22:03:27.769Z,0.80
2018-09-21T22:08:42.914Z,0.80
2018-09-21T22:11:17.324Z,0.73
2018-09-21T22:13:52.006Z,0.80
2018-09-21T22:16:21.430Z,0.57
2018-09-21T22:18:50.337Z,1.00
2018-09-21T22:21:19.388Z,0.77
2018-09-21T22:23:48.181Z,0.70
2018-09-21T22:26:17.087Z,0.77
2018-09-21T22:28:45.833Z,0.80
2018-09-21T22:31:14.565Z,0.57
2018-09-21T22:33:43.716Z,0.70
2018-09-21T22:36:12.705Z,0.60
2018-09-21T22:38:41.660Z,0.70
2018-09-21T22:41:10.463Z,0.90
2018-09-21T22:43:39.842Z,0.77
2018-09-21T22:46:08.645Z,0.70
2018-09-21T22:48:37.330Z,0.80
2018-09-21T22:51:06.801Z,1.10
2018-09-21T22:53:35.495Z,0.70
2018-09-21T22:56:04.364Z,0.80
2018-09-21T22:58:33.199Z,0.90
2018-09-21T23:01:06.685Z,0.70
2018-09-21T23:03:35.549Z,0.93
2018-09-21T23:06:05.132Z,1.13
2018-09-21T23:08:34.330Z,1.10
2018-09-21T23:11:03.300Z,0.90
2018-09-21T23:13:32.085Z,1.20
2018-09-21T23:16:00.953Z,1.40
2018-09-21T23:18:29.860Z,1.17
2018-09-21T23:20:58.580Z,1.20
2018-09-21T23:23:27.590Z,1.10
2018-09-21T23:25:56.383Z,1.30
2018-09-21T23:28:26.421Z,1.07
2018-09-21T23:30:55.284Z,1.30
2018-09-21T23:33:24.105Z,1.00
2018-09-21T23:35:53.162Z,0.93
2018-09-21T23:38:21.781Z,1.10
2018-09-21T23:40:50.998Z,1.30
2018-09-21T23:43:19.919Z,1.53
2018-09-21T23:45:48.752Z,1.27
2018-09-21T23:48:18.258Z,1.30
2018-09-21T23:50:47.915Z,1.10
2018-09-21T23:53:16.653Z,1.20
2018-09-21T23:55:45.479Z,1.43
2018-09-21T23:58:15.514Z,1.90
